Time;durP1;ratioP1;P1;durP2;ratioP2;P2;SDS_P1;SDS_P2;PMS_P1;PMS_P2;Temp;Humidity;BMP_temperature;BMP_pressure;BME280_temperature;BME280_humidity;BME280_pressure;Samples;Min_cycle;Max_cycle;Signal;HPM_P1;HPM_P2
2022/12/12 00:00:27;;;;;;;45.75;20.63;;;;;;;-0.66;100.00;100776.94;4949673;28;20039;-78
2022/12/12 00:02:53;;;;;;;43.53;18.98;;;;;;;-0.69;100.00;100786.47;4946951;28;20055;-79
2022/12/12 00:05:18;;;;;;;42.92;18.75;;;;;;;-0.70;100.00;100785.63;4950488;28;20042;-78
2022/12/12 00:07:44;;;;;;;46.72;20.70;;;;;;;-0.70;100.00;100793.28;4947885;28;20408;-78
2022/12/12 00:10:10;;;;;;;51.63;20.90;;;;;;;-0.71;100.00;100794.19;4937196;28;20046;-78
2022/12/12 00:12:35;;;;;;;57.22;21.58;;;;;;;-0.69;100.00;100796.66;4946993;28;20097;-79
2022/12/12 00:15:01;;;;;;;54.33;21.77;;;;;;;-0.70;100.00;100798.38;4949532;28;20035;-79
2022/12/12 00:17:27;;;;;;;55.85;21.35;;;;;;;-0.69;100.00;100797.47;4948563;28;20106;-79
2022/12/12 00:19:53;;;;;;;57.33;24.27;;;;;;;-0.64;100.00;100802.31;4945787;28;21049;-78
2022/12/12 00:22:18;;;;;;;61.13;24.25;;;;;;;-0.55;100.00;100795.91;4949974;28;20049;-78
2022/12/12 00:24:43;;;;;;;59.25;23.40;;;;;;;-0.45;100.00;100795.31;4960387;28;20507;-78
2022/12/12 00:27:09;;;;;;;52.22;21.92;;;;;;;-0.46;100.00;100792.84;4950625;28;20043;-78
2022/12/12 00:29:34;;;;;;;59.95;24.08;;;;;;;-0.50;100.00;100797.28;4948449;28;20520;-78
2022/12/12 00:32:00;;;;;;;60.60;24.75;;;;;;;-0.54;100.00;100795.81;4951108;28;20078;-78
2022/12/12 00:34:25;;;;;;;50.72;22.60;;;;;;;-0.65;100.00;100804.03;4954994;28;20035;-79
2022/12/12 00:36:51;;;;;;;54.70;22.40;;;;;;;-0.71;100.00;100804.38;4951273;28;20039;-78
2022/12/12 00:39:17;;;;;;;55.95;23.15;;;;;;;-0.66;100.00;100799.03;4946314;28;20034;-78
2022/12/12 00:41:43;;;;;;;52.78;23.83;;;;;;;-0.74;100.00;100799.44;4947470;28;20146;-79
2022/12/12 00:44:09;;;;;;;53.45;21.73;;;;;;;-0.77;100.00;100798.78;4944077;28;20035;-79
2022/12/12 00:46:34;;;;;;;52.13;21.65;;;;;;;-0.82;100.00;100804.13;4945679;28;20602;-78
2022/12/12 00:49:00;;;;;;;52.70;21.67;;;;;;;-0.83;100.00;100800.78;4946598;28;20043;-78
2022/12/12 00:51:27;;;;;;;55.90;21.95;;;;;;;-0.85;100.00;100799.19;4949595;28;20124;-78
2022/12/12 00:53:54;;;;;;;60.70;22.67;;;;;;;-0.85;100.00;100799.19;4950735;28;20083;-79
2022/12/12 00:56:21;;;;;;;52.05;21.83;;;;;;;-0.89;100.00;100792.63;4948070;28;20049;-79
2022/12/12 00:58:48;;;;;;;52.63;21.45;;;;;;;-0.91;100.00;100794.44;4946472;28;20400;-79
2022/12/12 01:01:17;;;;;;;57.13;22.52;;;;;;;-0.94;100.00;100803.06;4946271;28;20031;-78
2022/12/12 01:03:44;;;;;;;50.25;21.50;;;;;;;-0.98;100.00;100802.41;4957677;28;20539;-79
2022/12/12 01:06:10;;;;;;;49.80;21.38;;;;;;;-1.00;100.00;100798.28;4933381;28;20544;-79
2022/12/12 01:08:36;;;;;;;53.53;22.08;;;;;;;-1.03;100.00;100806.91;4946799;28;20043;-79
2022/12/12 01:11:01;;;;;;;55.95;21.95;;;;;;;-1.05;100.00;100805.38;4944580;28;20027;-78
2022/12/12 01:13:29;;;;;;;55.72;23.02;;;;;;;-1.09;100.00;100808.97;4941570;28;20043;-78
2022/12/12 01:15:55;;;;;;;53.80;22.92;;;;;;;-1.16;100.00;100807.66;4962717;28;20039;-78
2022/12/12 01:18:21;;;;;;;49.67;21.15;;;;;;;-1.21;100.00;100812.97;4945480;28;20405;-79
2022/12/12 01:20:46;;;;;;;54.08;21.50;;;;;;;-1.27;100.00;100814.09;4948698;28;20069;-78
2022/12/12 01:23:12;;;;;;;50.80;21.05;;;;;;;-1.30;100.00;100821.06;4945815;28;20047;-78
2022/12/12 01:25:38;;;;;;;51.80;21.23;;;;;;;-1.32;100.00;100822.88;4946401;28;20441;-79
2022/12/12 01:28:04;;;;;;;49.92;21.45;;;;;;;-1.34;100.00;100832.31;4948214;28;20043;-78
2022/12/12 01:30:30;;;;;;;53.33;21.40;;;;;;;-1.39;100.00;100833.38;4942090;28;20035;-78
2022/12/12 01:32:56;;;;;;;53.67;21.70;;;;;;;-1.45;100.00;100831.16;4948520;28;20090;-79
2022/12/12 01:35:22;;;;;;;53.90;22.02;;;;;;;-1.47;100.00;100834.66;4944017;28;20037;-78
2022/12/12 01:37:48;;;;;;;48.63;20.60;;;;;;;-1.51;100.00;100838.25;4940907;28;20043;-78
2022/12/12 01:40:17;;;;;;;52.97;21.70;;;;;;;-1.54;100.00;100839.25;4966031;28;20027;-79
2022/12/12 01:42:43;;;;;;;49.45;19.42;;;;;;;-1.57;100.00;100841.94;4942986;28;20248;-79
2022/12/12 01:45:47;;;;;;;50.92;20.35;;;;;;;-1.62;100.00;100842.19;4946066;28;20035;-79
2022/12/12 01:48:13;;;;;;;47.78;21.00;;;;;;;-1.63;100.00;100847.34;4933051;28;20073;-81
2022/12/12 01:50:42;;;;;;;50.78;22.13;;;;;;;-1.65;100.00;100849.13;4946462;28;20027;-78
2022/12/12 01:53:08;;;;;;;45.80;19.83;;;;;;;-1.68;100.00;100857.72;4956936;28;20432;-79
2022/12/12 01:55:34;;;;;;;48.40;20.02;;;;;;;-1.71;100.00;100851.97;4945684;28;20027;-79
2022/12/12 01:58:00;;;;;;;49.55;19.75;;;;;;;-1.76;100.00;100845.38;4945418;28;20081;-79
2022/12/12 02:00:26;;;;;;;55.90;21.42;;;;;;;-1.80;100.00;100848.16;4945254;28;20074;-79
2022/12/12 02:02:54;;;;;;;50.67;20.15;;;;;;;-1.84;100.00;100852.56;4922143;28;20090;-79
2022/12/12 02:05:38;;;;;;;47.90;19.42;;;;;;;-1.87;100.00;100847.63;4947019;28;20031;-80
2022/12/12 02:08:06;;;;;;;52.85;20.08;;;;;;;-1.91;100.00;100853.75;4945138;28;20386;-80
2022/12/12 02:10:32;;;;;;;53.05;20.58;;;;;;;-1.96;100.00;100848.06;4944778;28;20036;-80
2022/12/12 02:13:09;;;;;;;52.17;20.67;;;;;;;-2.00;100.00;100841.50;4960821;28;20043;-79
2022/12/12 02:15:43;;;;;;;55.78;21.13;;;;;;;-2.04;100.00;100845.09;4946577;28;20034;-79
2022/12/12 02:18:47;;;;;;;50.65;21.27;;;;;;;-2.06;100.00;100851.97;4952275;28;20046;-80
2022/12/12 02:21:29;;;;;;;54.90;22.23;;;;;;;-2.10;100.00;100846.19;4926713;28;20093;-80
2022/12/12 02:24:02;;;;;;;49.42;19.75;;;;;;;-2.15;100.00;100840.50;4938224;28;20043;-80
2022/12/12 02:26:46;;;;;;;62.17;21.85;;;;;;;-2.18;100.00;100845.75;4944793;28;20070;-80
2022/12/12 02:29:38;;;;;;;64.00;23.83;;;;;;;-2.25;100.00;100842.66;4938880;28;20563;-80
2022/12/12 02:32:21;;;;;;;52.28;21.55;;;;;;;-2.30;100.00;100843.78;4944865;28;20020;-80
2022/12/12 02:34:48;;;;;;;54.72;22.77;;;;;;;-2.35;100.00;100847.38;4942925;28;20062;-79
2022/12/12 02:37:29;;;;;;;58.45;22.90;;;;;;;-2.42;100.00;100843.47;4961427;28;20432;-79
2022/12/12 02:40:24;;;;;;;55.55;21.60;;;;;;;-2.45;100.00;100845.31;4936491;28;20039;-79
2022/12/12 02:42:57;;;;;;;50.95;20.67;;;;;;;-2.46;100.00;100848.75;4936689;28;20047;-79
2022/12/12 02:45:43;;;;;;;51.00;22.23;;;;;;;-2.51;100.00;100850.69;4955717;28;20137;-79
2022/12/12 02:48:24;;;;;;;55.58;22.85;;;;;;;-2.52;100.00;100851.56;4943620;28;20054;-79
2022/12/12 02:50:52;;;;;;;57.03;23.48;;;;;;;-2.56;100.00;100853.44;4943223;28;20353;-79
2022/12/12 02:53:19;;;;;;;57.65;23.38;;;;;;;-2.58;100.00;100850.97;4950379;28;20043;-79
2022/12/12 02:55:45;;;;;;;55.67;21.52;;;;;;;-2.62;100.00;100849.47;4944332;28;20074;-79
2022/12/12 02:58:12;;;;;;;61.10;24.02;;;;;;;-2.62;100.00;100853.72;4945643;28;20113;-79
2022/12/12 03:01:16;;;;;;;59.28;23.90;;;;;;;-2.63;100.00;100854.63;4940155;28;20617;-79
2022/12/12 03:10:10;;;;;;;58.75;22.70;;;;;;;-2.66;100.00;100854.75;4958106;28;20043;-79
2022/12/12 03:12:48;;;;;;;56.15;22.50;;;;;;;-2.68;100.00;100851.47;4958962;28;20070;-78
2022/12/12 03:15:22;;;;;;;58.97;22.55;;;;;;;-2.67;100.00;100859.00;4943503;28;20039;-79
2022/12/12 03:18:04;;;;;;;53.22;22.15;;;;;;;-2.65;100.00;100864.03;4974466;28;20047;-79
2022/12/12 03:20:44;;;;;;;51.78;22.75;;;;;;;-2.63;100.00;100852.09;4942899;28;21897;-79
2022/12/12 03:23:16;;;;;;;58.03;21.08;;;;;;;-2.63;100.00;100852.09;4957116;28;20126;-79
2022/12/12 03:25:45;;;;;;;57.47;22.52;;;;;;;-2.62;100.00;100859.63;4945246;28;20122;-79
2022/12/12 03:28:32;;;;;;;66.38;23.10;;;;;;;-2.62;100.00;100852.00;4942655;28;20123;-79
2022/12/12 03:31:03;;;;;;;54.45;22.05;;;;;;;-2.61;100.00;100852.84;4952437;28;20024;-79
2022/12/12 03:33:45;;;;;;;53.60;22.00;;;;;;;-2.59;100.00;100853.59;4942096;28;20039;-79
2022/12/12 03:36:28;;;;;;;65.60;23.85;;;;;;;-2.60;100.00;100852.75;4945111;28;20038;-79
2022/12/12 03:39:12;;;;;;;;;;;;;;;-2.60;100.00;100857.84;4944183;28;20048;-79
2022/12/12 03:41:42;;;;;;;;;;;;;;;-2.60;100.00;100860.38;4946641;28;19926;-79
2022/12/12 03:44:17;;;;;;;58.75;22.73;;;;;;;-2.60;100.00;100857.00;4944633;28;19918;-78
2022/12/12 03:47:24;;;;;;;56.80;22.48;;;;;;;-2.60;100.00;100859.53;4949516;28;20043;-79
2022/12/12 03:49:52;;;;;;;59.92;23.88;;;;;;;-2.59;100.00;100854.41;4928281;29;20049;-80
2022/12/12 03:52:32;;;;;;;67.35;24.73;;;;;;;-2.58;100.00;100858.59;4929120;28;20035;-79
2022/12/12 03:55:07;;;;;;;60.15;23.63;;;;;;;-2.57;100.00;100856.88;4951454;28;20047;-78
2022/12/12 03:57:40;;;;;;;63.80;22.90;;;;;;;-2.57;100.00;100857.69;4948239;28;20579;-79
2022/12/12 04:00:09;;;;;;;54.30;22.15;;;;;;;-2.56;100.00;100859.34;4948492;28;20397;-79
2022/12/12 04:03:14;;;;;;;57.47;22.35;;;;;;;-2.52;100.00;100861.72;4941537;28;20039;-78
2022/12/12 04:08:31;;;;;;;67.35;24.55;;;;;;;-2.50;100.00;100862.50;4972969;28;20114;-79
2022/12/12 04:14:22;;;;;;;56.72;23.17;;;;;;;-2.46;100.00;100869.09;4938704;28;20047;-78
2022/12/12 04:16:59;;;;;;;64.32;22.25;;;;;;;-2.46;100.00;100867.34;4943440;28;20039;-79
2022/12/12 04:25:31;;;;;;;63.00;23.85;;;;;;;-2.45;100.00;100879.19;4962852;28;20035;-81
2022/12/12 04:28:03;;;;;;;66.47;23.73;;;;;;;-2.46;100.00;100879.25;4944078;28;20039;-79
2022/12/12 04:30:31;;;;;;;56.78;21.98;;;;;;;-2.47;100.00;100882.66;4946015;28;20337;-78
2022/12/12 04:33:12;;;;;;;60.42;22.67;;;;;;;-2.47;100.00;100880.94;4952327;28;20047;-79
2022/12/12 04:35:44;;;;;;;60.13;22.13;;;;;;;-2.47;100.00;100886.03;4968506;28;20039;-79
2022/12/12 04:38:15;;;;;;;58.10;22.92;;;;;;;-2.48;100.00;100889.47;4948949;28;20050;-79
2022/12/12 04:40:48;;;;;;;;;;;;;;;-2.47;100.00;100895.34;4943480;28;20027;-79
2022/12/12 04:43:25;;;;;;;60.65;23.45;;;;;;;-2.46;100.00;100894.47;4949849;28;20017;-79
2022/12/12 04:45:55;;;;;;;64.85;22.02;;;;;;;-2.48;100.00;100886.94;4950966;28;20051;-78
2022/12/12 04:48:50;;;;;;;54.20;21.52;;;;;;;-2.46;100.00;100891.94;4942740;28;20574;-79
2022/12/12 04:51:25;;;;;;;61.28;22.67;;;;;;;-2.47;100.00;100892.81;4941064;28;20043;-79
2022/12/12 04:53:57;;;;;;;58.20;24.13;;;;;;;-2.50;100.00;100887.91;4945511;28;20042;-78
2022/12/12 04:56:28;;;;;;;62.72;22.85;;;;;;;-2.52;100.00;100885.44;4941954;28;20422;-79
2022/12/12 04:58:54;;;;;;;59.00;20.85;;;;;;;-2.54;100.00;100884.69;4948665;28;20042;-78
2022/12/12 05:01:33;;;;;;;54.28;20.95;;;;;;;-2.53;100.00;100881.22;4949640;28;20208;-80
2022/12/12 05:04:28;;;;;;;53.38;21.65;;;;;;;-2.55;100.00;100883.81;4946552;28;20045;-78
2022/12/12 05:07:00;;;;;;;55.90;20.73;;;;;;;-2.55;100.00;100893.16;4942808;28;20054;-78
2022/12/12 05:09:26;;;;;;;53.60;22.42;;;;;;;-2.57;100.00;100893.22;4946075;28;20074;-79
2022/12/12 05:11:52;;;;;;;55.13;21.83;;;;;;;-2.58;100.00;100893.31;4957295;28;20378;-79
2022/12/12 05:14:18;;;;;;;56.42;21.63;;;;;;;-2.59;100.00;100889.94;4944961;28;20508;-79
2022/12/12 05:16:50;;;;;;;60.67;23.00;;;;;;;-2.59;100.00;100894.22;4948341;28;20047;-79
2022/12/12 05:19:16;;;;;;;51.03;21.58;;;;;;;-2.59;100.00;100894.22;4944419;28;20039;-78
2022/12/12 05:21:41;;;;;;;51.30;20.95;;;;;;;-2.62;100.00;100900.25;4939586;28;20047;-79
2022/12/12 05:24:07;;;;;;;61.00;21.58;;;;;;;-2.63;100.00;100893.53;4958842;28;20047;-79
2022/12/12 05:26:34;;;;;;;57.00;21.00;;;;;;;-2.65;100.00;100897.84;4961310;28;20034;-79
2022/12/12 05:29:00;;;;;;;55.35;21.40;;;;;;;-2.66;100.00;100900.44;4943820;28;20048;-79
2022/12/12 05:31:26;;;;;;;60.63;21.95;;;;;;;-2.68;100.00;100892.06;4948835;28;20137;-79
2022/12/12 05:33:51;;;;;;;46.47;20.73;;;;;;;-2.70;100.00;100909.91;4944288;28;20492;-80
2022/12/12 05:36:18;;;;;;;59.47;21.48;;;;;;;-2.72;100.00;100903.25;4947403;28;20068;-79
2022/12/12 05:38:44;;;;;;;50.08;20.38;;;;;;;-2.75;100.00;100906.75;4929214;28;20047;-79
2022/12/12 05:41:10;;;;;;;49.85;20.50;;;;;;;-2.78;100.00;100902.63;4946513;28;20575;-79
2022/12/12 05:43:36;;;;;;;58.53;23.50;;;;;;;-2.81;100.00;100904.50;4947247;28;20042;-78
2022/12/12 05:46:03;;;;;;;56.65;21.63;;;;;;;-2.85;100.00;100908.06;4947062;28;20039;-79
2022/12/12 05:48:29;;;;;;;56.42;21.92;;;;;;;-2.88;100.00;100908.19;4945192;28;20050;-79
2022/12/12 05:50:54;;;;;;;55.55;20.45;;;;;;;-2.91;100.00;100914.22;4959871;28;20035;-79
2022/12/12 05:53:20;;;;;;;52.13;21.48;;;;;;;-2.91;100.00;100918.47;4945096;28;20039;-79
2022/12/12 05:55:49;;;;;;;52.75;20.65;;;;;;;-2.95;100.00;100916.06;4943261;28;20035;-78
2022/12/12 05:58:14;;;;;;;54.90;20.92;;;;;;;-2.97;100.00;100910.22;4943141;28;20042;-79
2022/12/12 06:00:40;;;;;;;54.92;22.67;;;;;;;-2.99;100.00;100908.66;4945283;28;20066;-80
2022/12/12 06:03:05;;;;;;;54.33;19.88;;;;;;;-3.01;100.00;100916.34;4949023;28;20096;-80
2022/12/12 06:05:31;;;;;;;57.53;21.42;;;;;;;-3.04;100.00;100921.53;4947036;28;20448;-79
2022/12/12 06:07:56;;;;;;;60.53;22.25;;;;;;;-3.06;100.00;100920.78;4944298;28;20036;-80
2022/12/12 06:10:22;;;;;;;66.07;22.30;;;;;;;-3.10;100.00;100919.25;4947646;28;20034;-78
2022/12/12 06:12:47;;;;;;;66.90;23.25;;;;;;;-3.12;100.00;100918.50;4939465;28;20429;-79
2022/12/12 06:15:13;;;;;;;63.97;24.80;;;;;;;-3.14;100.00;100917.75;4948969;28;20066;-79
2022/12/12 06:17:38;;;;;;;63.72;24.33;;;;;;;-3.17;100.00;100912.78;4953501;28;20042;-79
2022/12/12 06:20:04;;;;;;;62.95;24.13;;;;;;;-3.20;100.00;100916.31;4960103;28;20031;-79
2022/12/12 06:22:29;;;;;;;59.00;21.98;;;;;;;-3.27;100.00;100921.69;4956638;28;20039;-80
2022/12/12 06:24:55;;;;;;;53.17;21.55;;;;;;;-3.33;100.00;100923.59;4962065;28;20032;-80
2022/12/12 06:27:20;;;;;;;58.20;21.50;;;;;;;-3.36;100.00;100938.09;4948918;28;20035;-79
2022/12/12 06:29:46;;;;;;;70.82;23.75;;;;;;;-3.38;100.00;100934.81;4945926;28;20570;-80
2022/12/12 06:32:12;;;;;;;67.60;23.60;;;;;;;-3.40;100.00;100939.13;4949645;28;20103;-79
2022/12/12 06:34:38;;;;;;;58.65;22.23;;;;;;;-3.42;100.00;100941.72;4939244;28;20039;-79
2022/12/12 06:37:07;;;;;;;59.78;23.85;;;;;;;-3.45;100.00;100941.84;4942263;28;20510;-80
2022/12/12 06:39:32;;;;;;;59.17;21.98;;;;;;;-3.46;100.00;100939.38;4947491;28;20043;-79
2022/12/12 06:41:58;;;;;;;51.67;22.10;;;;;;;-3.52;100.00;100943.81;4940372;28;20331;-80
2022/12/12 06:44:23;;;;;;;56.67;21.38;;;;;;;-3.56;100.00;100942.28;4945863;28;20078;-79
2022/12/12 06:46:49;;;;;;;56.78;21.83;;;;;;;-3.59;100.00;100946.66;4942485;28;20484;-80
2022/12/12 06:49:14;;;;;;;60.13;23.23;;;;;;;-3.61;100.00;100945.91;4945846;28;20528;-79
2022/12/12 06:51:43;;;;;;;57.05;21.15;;;;;;;-3.63;100.00;100951.03;4960139;28;20024;-79
2022/12/12 06:54:16;;;;;;;57.63;21.50;;;;;;;-3.64;100.00;100954.44;4946023;28;20894;-79
2022/12/12 06:56:42;;;;;;;59.85;21.15;;;;;;;-3.66;100.00;100958.75;4971359;28;20050;-78
2022/12/12 06:59:10;;;;;;;55.95;21.02;;;;;;;-3.69;100.00;100956.34;4942326;28;20047;-78
2022/12/12 07:01:35;;;;;;;55.97;20.50;;;;;;;-3.71;100.00;100963.19;4944330;28;20556;-79
2022/12/12 07:04:01;;;;;;;49.72;19.95;;;;;;;-3.74;100.00;100959.03;4939211;28;20040;-80
2022/12/12 07:06:27;;;;;;;55.85;19.98;;;;;;;-3.73;100.00;100975.06;4959207;28;20094;-79
2022/12/12 07:08:53;;;;;;;53.33;20.75;;;;;;;-3.74;100.00;100968.38;4943962;28;20397;-79
2022/12/12 07:11:24;;;;;;;53.97;20.95;;;;;;;-3.76;100.00;100965.06;4938012;28;20042;-79
2022/12/12 07:13:51;;;;;;;61.65;20.88;;;;;;;-3.79;100.00;100967.72;4945384;28;20074;-80
2022/12/12 07:16:17;;;;;;;56.30;21.65;;;;;;;-3.81;100.00;100972.84;4959457;28;20558;-79
2022/12/12 07:18:43;;;;;;;51.45;21.02;;;;;;;-3.82;100.00;100978.81;4952550;28;20488;-79
2022/12/12 07:21:12;;;;;;;55.58;21.02;;;;;;;-3.82;100.00;100975.44;4942792;28;20039;-80
2022/12/12 07:23:38;;;;;;;63.55;21.25;;;;;;;-3.84;100.00;100984.78;4943428;28;20050;-80
2022/12/12 07:26:06;;;;;;;62.33;23.52;;;;;;;-3.87;100.00;100985.75;4944173;28;20040;-79
2022/12/12 07:28:31;;;;;;;68.75;25.25;;;;;;;-3.89;100.00;100981.63;4966091;28;20146;-80
2022/12/12 07:30:57;;;;;;;61.03;24.42;;;;;;;-3.92;100.00;100985.94;4941145;28;20460;-79
2022/12/12 07:33:23;;;;;;;69.88;25.17;;;;;;;-3.92;100.00;100980.03;4940908;28;20551;-79
2022/12/12 07:35:48;;;;;;;68.70;24.70;;;;;;;-3.93;100.00;100991.88;4946581;28;20045;-79
2022/12/12 07:38:14;;;;;;;71.10;24.80;;;;;;;-3.92;100.00;100987.63;4945099;28;20047;-81
2022/12/12 07:40:40;;;;;;;61.22;23.55;;;;;;;-3.93;100.00;100989.34;4946690;28;20074;-81
2022/12/12 07:43:05;;;;;;;68.40;25.48;;;;;;;-3.94;100.00;100990.25;4951791;28;20054;-79
2022/12/12 07:45:31;;;;;;;74.60;25.27;;;;;;;-3.94;100.00;100984.31;4946340;28;20521;-78
2022/12/12 07:47:56;;;;;;;90.25;29.17;;;;;;;-3.94;100.00;100989.41;4946804;28;20036;-79
2022/12/12 07:50:22;;;;;;;83.18;30.10;;;;;;;-3.94;100.00;100990.25;4944398;28;20026;-79
2022/12/12 07:52:47;;;;;;;85.65;31.17;;;;;;;-3.94;100.00;100992.78;4942369;28;20118;-80
2022/12/12 07:55:13;;;;;;;91.40;31.80;;;;;;;-3.93;100.00;100996.13;4942893;28;20480;-79
2022/12/12 07:57:40;;;;;;;78.13;29.40;;;;;;;-3.94;100.00;100997.00;4936485;28;20027;-79
2022/12/12 08:00:07;;;;;;;89.40;28.88;;;;;;;-3.94;100.00;100989.41;4945303;28;20071;-79
2022/12/12 08:02:37;;;;;;;78.90;29.13;;;;;;;-3.95;100.00;100987.75;4944866;28;20129;-80
2022/12/12 08:05:03;;;;;;;74.00;26.42;;;;;;;-4.00;100.00;100992.16;4944852;28;20472;-80
2022/12/12 08:07:28;;;;;;;59.45;23.17;;;;;;;-4.03;100.00;100990.59;4947370;28;20047;-80
2022/12/12 08:09:54;;;;;;;64.40;24.30;;;;;;;-4.05;100.00;100984.75;4948545;28;20039;-79
2022/12/12 08:12:19;;;;;;;70.45;24.33;;;;;;;-4.04;100.00;100995.69;4947944;28;20023;-79
2022/12/12 08:14:45;;;;;;;68.57;25.13;;;;;;;-4.04;100.00;100999.06;4946617;28;20592;-79
2022/12/12 08:17:10;;;;;;;63.15;24.58;;;;;;;-4.02;100.00;101004.88;4948105;28;20075;-79
2022/12/12 08:19:35;;;;;;;69.50;23.08;;;;;;;-4.04;100.00;101010.91;4948762;28;20517;-79
2022/12/12 08:22:01;;;;;;;61.38;22.67;;;;;;;-4.11;100.00;101006.06;4953521;28;20070;-79
2022/12/12 08:24:28;;;;;;;63.08;23.70;;;;;;;-4.12;100.00;101013.72;4951332;28;20031;-79
2022/12/12 08:26:54;;;;;;;70.13;23.63;;;;;;;-4.11;100.00;101012.81;4945063;28;20093;-79
2022/12/12 08:29:20;;;;;;;65.65;23.60;;;;;;;-4.08;100.00;101015.25;4963262;28;20113;-80
2022/12/12 08:31:46;;;;;;;71.93;25.40;;;;;;;-4.06;100.00;101017.75;4949837;28;20028;-78
2022/12/12 08:34:11;;;;;;;82.43;28.55;;;;;;;-4.04;100.00;101015.97;4933904;28;20117;-79
2022/12/12 08:36:37;;;;;;;93.82;32.45;;;;;;;-4.02;100.00;101019.28;4947410;28;20090;-78
2022/12/12 08:39:21;;;;;;;77.78;27.98;;;;;;;-4.01;100.00;101015.84;4946641;28;20047;-78
2022/12/12 08:41:47;;;;;;;76.57;29.00;;;;;;;-4.00;100.00;101017.50;4964578;28;20043;-78
2022/12/12 08:44:14;;;;;;;74.03;28.00;;;;;;;-3.99;100.00;101022.53;4949134;28;20039;-79
2022/12/12 08:46:40;;;;;;;78.22;28.92;;;;;;;-3.98;100.00;101021.63;4951831;28;20424;-79
2022/12/12 08:49:07;;;;;;;76.30;27.95;;;;;;;-3.97;100.00;101017.41;4948605;28;20134;-78
2022/12/12 08:51:33;;;;;;;76.55;28.77;;;;;;;-3.96;100.00;101024.09;4947768;28;20023;-78
2022/12/12 08:53:59;;;;;;;79.80;27.27;;;;;;;-3.94;100.00;101022.34;4949777;28;20620;-78
2022/12/12 08:56:24;;;;;;;82.45;28.42;;;;;;;-3.92;100.00;101029.00;4934311;28;20039;-79
2022/12/12 08:58:50;;;;;;;75.57;28.17;;;;;;;-3.88;100.00;101026.34;4947502;28;20051;-79
2022/12/12 09:01:22;;;;;;;87.90;29.27;;;;;;;-3.85;100.00;101026.25;4954281;28;20123;-79
2022/12/12 09:03:49;;;;;;;74.00;26.55;;;;;;;-3.83;100.00;101021.94;4945925;28;20055;-78
2022/12/12 09:06:15;;;;;;;73.78;26.77;;;;;;;-3.80;100.00;101024.38;4942846;28;20038;-78
2022/12/12 09:08:42;;;;;;;70.32;25.77;;;;;;;-3.79;100.00;101029.34;4949149;28;20501;-78
2022/12/12 09:11:08;;;;;;;70.85;25.70;;;;;;;-3.78;100.00;101031.03;4945266;28;20412;-78
2022/12/12 09:13:33;;;;;;;69.55;27.00;;;;;;;-3.77;100.00;101026.75;4952510;28;20460;-78
2022/12/12 09:15:59;;;;;;;71.03;27.10;;;;;;;-3.76;100.00;101029.25;4950702;28;20059;-79
2022/12/12 09:18:25;;;;;;;66.25;24.98;;;;;;;-3.72;100.00;101032.50;4945960;28;20078;-79
2022/12/12 09:20:56;;;;;;;68.15;24.88;;;;;;;-3.69;100.00;101036.63;4957891;28;20039;-79
2022/12/12 09:23:22;;;;;;;68.43;26.42;;;;;;;-3.66;100.00;101036.50;4945065;28;20795;-78
2022/12/12 09:25:48;;;;;;;72.57;27.23;;;;;;;-3.59;100.00;101026.06;4932424;28;20035;-78
2022/12/12 09:28:16;;;;;;;65.28;27.35;;;;;;;-3.45;100.00;101032.31;4964130;28;20559;-78
2022/12/12 09:30:43;;;;;;;66.00;24.38;;;;;;;-3.38;100.00;101028.66;4946324;28;20020;-77
2022/12/12 09:33:09;;;;;;;62.95;25.42;;;;;;;-3.32;100.00;101028.41;4960665;28;20471;-78
2022/12/12 09:35:35;;;;;;;58.55;24.30;;;;;;;-3.20;100.00;101032.16;4949937;28;20054;-78
2022/12/12 09:38:01;;;;;;;73.75;25.33;;;;;;;-3.11;100.00;101036.03;4948318;28;20071;-78
2022/12/12 09:41:11;;;;;;;60.25;23.85;;;;;;;-3.13;100.00;101029.31;4947331;28;20036;-78
2022/12/12 09:43:59;;;;;;;65.75;24.92;;;;;;;-3.06;100.00;101029.88;4961098;28;20537;-78
2022/12/12 09:46:36;;;;;;;73.53;25.90;;;;;;;-3.00;100.00;101034.69;4944020;28;20059;-77
2022/12/12 09:49:48;;;;;;;62.30;23.08;;;;;;;-2.96;100.00;101043.00;4976529;28;20056;-77
2022/12/12 09:52:27;;;;;;;61.00;23.88;;;;;;;-2.92;100.00;101044.53;4938993;28;20071;-77
2022/12/12 09:54:53;;;;;;;65.80;23.92;;;;;;;-2.88;100.00;101043.53;4944826;28;20657;-77
2022/12/12 09:57:25;;;;;;;66.45;24.38;;;;;;;-2.89;100.00;101041.88;4948355;28;20035;-77
2022/12/12 10:00:02;;;;;;;68.80;24.85;;;;;;;-2.72;100.00;101051.34;4939103;28;20054;-77
2022/12/12 10:02:43;;;;;;;59.97;23.88;;;;;;;-2.64;100.00;101051.00;4946032;28;20131;-77
2022/12/12 10:05:30;;;;;;;63.85;23.80;;;;;;;-2.62;100.00;101049.22;4944167;28;20038;-77
2022/12/12 10:08:28;;;;;;;64.00;25.23;;;;;;;-2.57;100.00;101053.22;4943712;28;20466;-77
2022/12/12 10:11:02;;;;;;;68.97;24.88;;;;;;;-2.58;100.00;101045.66;4942710;28;20408;-77
2022/12/12 10:13:31;;;;;;;64.78;26.60;;;;;;;-2.61;100.00;101041.53;4948470;28;20515;-77
2022/12/12 10:16:15;;;;;;;76.90;28.77;;;;;;;-2.61;100.00;101049.16;4946976;28;20085;-77
2022/12/12 10:18:50;;;;;;;70.15;27.33;;;;;;;-2.63;100.00;101037.44;4944730;28;20039;-78
2022/12/12 10:21:25;;;;;;;68.28;23.60;;;;;;;-2.60;100.00;101038.13;4953472;28;20526;-79
2022/12/12 10:24:03;;;;;;;61.50;23.85;;;;;;;-2.48;100.00;101036.78;4964192;28;20039;-79
2022/12/12 10:26:30;;;;;;;57.63;23.05;;;;;;;-2.04;100.00;101038.25;4943897;28;20094;-78
2022/12/12 10:29:08;;;;;;;71.68;26.08;;;;;;;-2.11;100.00;101026.69;4940531;28;20617;-78
2022/12/12 10:31:48;;;;;;;64.43;23.83;;;;;;;-2.14;100.00;101025.13;4949117;28;20031;-79
2022/12/12 10:34:31;;;;;;;57.38;22.10;;;;;;;-2.00;100.00;101024.50;4944806;28;20058;-79
2022/12/12 10:37:17;;;;;;;54.90;20.73;;;;;;;-1.94;100.00;101029.31;4946819;28;20038;-79
2022/12/12 10:39:55;;;;;;;58.67;21.80;;;;;;;-1.87;100.00;101029.84;4939709;28;20161;-79
2022/12/12 10:42:42;;;;;;;54.15;21.80;;;;;;;-1.86;100.00;101028.97;4946300;28;20046;-79
2022/12/12 10:45:25;;;;;;;65.30;24.85;;;;;;;-1.89;100.00;101016.38;4946497;28;20039;-78
2022/12/12 10:47:54;;;;;;;65.17;24.80;;;;;;;-1.67;100.00;101014.50;4948331;28;20046;-79
2022/12/12 10:50:38;;;;;;;63.75;24.33;;;;;;;-1.66;100.00;101008.50;4929545;28;20046;-79
2022/12/12 10:53:06;;;;;;;53.80;21.65;;;;;;;-1.63;100.00;101007.56;4923462;28;20126;-80
2022/12/12 10:55:46;;;;;;;59.92;23.20;;;;;;;-1.70;100.00;101006.19;4945144;28;20039;-79
2022/12/12 10:58:12;;;;;;;57.92;21.17;;;;;;;-1.72;100.00;101007.97;4942938;28;20177;-79
2022/12/12 11:00:40;;;;;;;56.40;22.10;;;;;;;-1.57;100.00;101013.16;4950789;28;20401;-78
2022/12/12 11:03:25;;;;;;;53.78;21.10;;;;;;;-1.54;100.00;101006.28;4942435;28;20039;-78
2022/12/12 11:05:52;;;;;;;60.25;24.23;;;;;;;-1.40;100.00;101004.72;4953188;28;20519;-78
2022/12/12 11:08:26;;;;;;;53.05;21.55;;;;;;;-1.32;100.00;100999.25;4945175;28;20514;-77
2022/12/12 11:11:03;;;;;;;51.85;20.30;;;;;;;-1.34;100.00;100993.41;4937888;28;20035;-77
2022/12/12 11:13:30;;;;;;;64.07;22.73;;;;;;;-1.41;100.00;100992.91;4954854;28;20102;-78
2022/12/12 11:16:05;;;;;;;52.92;21.70;;;;;;;-1.37;100.00;100993.59;4943167;28;20135;-78
2022/12/12 11:18:31;;;;;;;54.33;21.90;;;;;;;-1.41;100.00;100992.09;4941802;28;20126;-78
2022/12/12 11:21:07;;;;;;;53.85;21.45;;;;;;;-1.41;100.00;100992.91;4945978;28;20067;-78
2022/12/12 11:23:35;;;;;;;53.10;21.15;;;;;;;-1.33;100.00;100989.19;4946122;28;20070;-78
2022/12/12 11:26:04;;;;;;;58.28;21.27;;;;;;;-1.31;100.00;100995.84;4951136;28;20031;-78
2022/12/12 11:28:34;;;;;;;54.80;21.48;;;;;;;-1.23;100.00;100992.91;4944961;28;20047;-78
2022/12/12 11:31:06;;;;;;;57.05;20.73;;;;;;;-1.09;100.00;100993.06;4941144;28;20042;-79
2022/12/12 11:33:43;;;;;;;48.60;19.95;;;;;;;-1.06;100.00;100997.97;4945143;28;20472;-79
2022/12/12 11:36:14;;;;;;;56.38;19.77;;;;;;;-1.16;100.00;101001.09;4946764;28;20038;-80